createdAt,value
2023-01-18T00:01:23.622Z,212.80
2023-01-18T00:03:53.057Z,181.48
2023-01-18T00:06:22.035Z,225.13
2023-01-18T00:08:50.359Z,212.35
2023-01-18T00:11:19.143Z,205.45
2023-01-18T00:13:48.209Z,213.88
2023-01-18T00:16:20.130Z,213.20
2023-01-18T00:18:54.151Z,231.68
2023-01-18T00:21:25.776Z,213.07
2023-01-18T00:23:56.573Z,214.38
2023-01-18T00:26:26.707Z,200.17
2023-01-18T00:28:56.903Z,182.32
2023-01-18T00:31:25.815Z,153.75
2023-01-18T00:33:54.167Z,166.80
2023-01-18T00:36:23.159Z,158.07
2023-01-18T00:38:52.452Z,150.20
2023-01-18T00:41:22.496Z,160.35
2023-01-18T00:43:51.754Z,145.27
2023-01-18T00:46:27.418Z,148.80
2023-01-18T00:48:57.422Z,130.75
2023-01-18T00:51:26.129Z,113.20
2023-01-18T00:53:54.615Z,102.70
2023-01-18T00:56:23.416Z,85.63
2023-01-18T00:58:51.949Z,90.72
2023-01-18T01:01:21.195Z,93.88
2023-01-18T01:07:50.069Z,86.70
2023-01-18T01:10:18.706Z,77.55
2023-01-18T01:13:06.026Z,71.95
2023-01-18T01:15:53.192Z,59.70
2023-01-18T01:18:39.878Z,59.78
2023-01-18T01:21:26.799Z,68.03
2023-01-18T01:24:13.572Z,76.63
2023-01-18T01:26:42.980Z,65.18
2023-01-18T01:29:11.362Z,64.65
2023-01-18T01:31:39.877Z,79.95
2023-01-18T01:34:08.173Z,86.07
2023-01-18T01:36:37.224Z,81.03
2023-01-18T01:39:07.213Z,77.15
2023-01-18T01:41:36.131Z,72.43
2023-01-18T01:44:34.377Z,66.15
2023-01-18T01:47:33.044Z,65.32
2023-01-18T01:50:08.073Z,65.65
2023-01-18T01:52:39.569Z,69.63
2023-01-18T01:55:16.079Z,73.00
2023-01-18T01:57:56.727Z,66.00
2023-01-18T02:00:25.524Z,64.28
2023-01-18T02:03:01.553Z,68.80
2023-01-18T02:05:32.324Z,76.28
2023-01-18T02:08:03.174Z,79.97
2023-01-18T02:10:31.486Z,81.10
2023-01-18T02:13:01.366Z,92.13
2023-01-18T02:15:51.996Z,91.35
2023-01-18T02:18:35.021Z,92.57
2023-01-18T02:21:19.046Z,94.03
2023-01-18T02:24:30.597Z,89.03
2023-01-18T02:27:11.724Z,104.95
2023-01-18T02:29:56.548Z,105.80
2023-01-18T02:32:55.833Z,97.63
2023-01-18T02:35:36.886Z,89.10
2023-01-18T02:38:26.842Z,98.05
2023-01-18T02:41:01.470Z,97.00
2023-01-18T02:43:48.006Z,96.38
2023-01-18T02:46:36.288Z,99.05
2023-01-18T02:49:32.338Z,103.40
2023-01-18T02:52:08.343Z,92.90
2023-01-18T02:54:40.109Z,91.45
2023-01-18T02:57:15.437Z,100.05
2023-01-18T02:59:50.331Z,109.22
2023-01-18T03:02:23.090Z,95.03
2023-01-18T03:04:56.865Z,90.40
2023-01-18T03:07:36.110Z,99.10
2023-01-18T03:10:08.132Z,92.30
2023-01-18T03:12:48.564Z,93.47
2023-01-18T03:15:44.781Z,93.00
2023-01-18T03:18:23.157Z,83.53
2023-01-18T03:20:57.060Z,97.00
2023-01-18T03:23:41.359Z,96.18
2023-01-18T03:26:14.733Z,100.80
2023-01-18T03:29:10.901Z,102.22
2023-01-18T03:32:08.801Z,92.55
2023-01-18T03:34:50.216Z,97.43
2023-01-18T03:37:27.715Z,90.68
2023-01-18T03:40:06.631Z,96.38
2023-01-18T03:42:57.567Z,91.72
2023-01-18T03:45:42.134Z,97.88
2023-01-18T03:48:12.060Z,80.60
2023-01-18T03:50:52.268Z,78.40
2023-01-18T03:53:43.937Z,83.38
2023-01-18T03:59:05.962Z,81.88
2023-01-18T04:01:35.319Z,79.20
2023-01-18T04:04:03.625Z,87.00
2023-01-18T04:06:33.129Z,86.85
2023-01-18T04:09:01.449Z,74.30
2023-01-18T04:11:30.156Z,79.07
2023-01-18T04:14:00.325Z,78.07
2023-01-18T04:16:35.484Z,79.05
2023-01-18T04:19:08.777Z,87.70
2023-01-18T04:21:38.597Z,88.60
2023-01-18T04:24:07.523Z,91.53
2023-01-18T04:26:36.047Z,88.10
2023-01-18T04:29:05.473Z,84.80
2023-01-18T04:31:36.953Z,91.50
2023-01-18T04:34:05.271Z,80.75
2023-01-18T04:36:33.895Z,82.75
2023-01-18T04:39:02.175Z,79.65
2023-01-18T04:41:36.671Z,96.80
2023-01-18T04:44:06.645Z,95.00
2023-01-18T04:46:39.941Z,88.50
2023-01-18T04:49:15.559Z,85.72
2023-01-18T04:51:45.690Z,91.55
2023-01-18T04:54:19.589Z,85.18
2023-01-18T04:56:48.153Z,77.60
2023-01-18T04:59:16.939Z,83.25
2023-01-18T05:01:45.613Z,80.07
2023-01-18T05:04:19.382Z,70.20
2023-01-18T05:07:08.620Z,70.70
2023-01-18T05:09:38.666Z,63.45
2023-01-18T05:12:08.689Z,72.53
2023-01-18T05:14:39.934Z,70.70
2023-01-18T05:17:09.169Z,65.47
2023-01-18T05:19:37.480Z,68.25
2023-01-18T05:22:06.553Z,71.90
2023-01-18T05:24:39.037Z,70.85
2023-01-18T05:27:07.883Z,63.10
2023-01-18T05:29:36.450Z,71.82
2023-01-18T05:32:06.491Z,63.30
2023-01-18T05:34:34.805Z,64.65
2023-01-18T05:37:04.684Z,64.82
2023-01-18T05:39:32.960Z,63.33
2023-01-18T05:42:05.850Z,68.28
2023-01-18T05:44:34.780Z,65.20
2023-01-18T05:47:06.193Z,76.68
2023-01-18T05:49:37.383Z,63.78
2023-01-18T05:52:06.009Z,68.38
2023-01-18T05:54:34.533Z,62.80
2023-01-18T05:57:03.146Z,70.85
2023-01-18T05:59:31.457Z,63.65
2023-01-18T06:02:00.243Z,61.75
2023-01-18T06:04:28.536Z,71.72
2023-01-18T06:06:57.172Z,63.90
2023-01-18T06:09:25.410Z,58.50
2023-01-18T06:11:54.000Z,69.00
2023-01-18T06:14:22.399Z,61.53
2023-01-18T06:16:50.897Z,60.42
2023-01-18T06:19:19.329Z,63.40
2023-01-18T06:21:47.819Z,65.60
2023-01-18T06:24:16.111Z,63.45
2023-01-18T06:26:46.845Z,67.22
2023-01-18T06:29:17.912Z,64.00
2023-01-18T06:31:49.570Z,64.13
2023-01-18T06:34:20.176Z,64.25
2023-01-18T06:36:48.748Z,58.47
2023-01-18T06:39:17.644Z,67.63
2023-01-18T06:41:58.943Z,59.75
2023-01-18T06:44:27.238Z,57.55
2023-01-18T06:46:55.809Z,57.13
2023-01-18T06:49:24.251Z,61.45
2023-01-18T06:51:53.107Z,53.20
2023-01-18T06:54:24.391Z,56.05
2023-01-18T06:56:53.136Z,52.78
2023-01-18T06:59:21.349Z,50.60
2023-01-18T07:01:54.746Z,60.95
2023-01-18T07:04:23.142Z,50.30
2023-01-18T07:06:51.714Z,58.67
2023-01-18T07:09:19.953Z,90.80
2023-01-18T07:11:48.516Z,109.15
2023-01-18T07:14:16.777Z,87.28
2023-01-18T07:16:45.445Z,83.57
2023-01-18T07:19:15.396Z,101.22
2023-01-18T07:21:44.742Z,105.45
2023-01-18T07:24:13.046Z,112.80
2023-01-18T07:26:41.734Z,115.00
2023-01-18T07:29:10.145Z,101.22
2023-01-18T07:31:38.903Z,105.25
2023-01-18T07:34:07.322Z,112.03
2023-01-18T07:36:35.921Z,103.47
2023-01-18T07:39:05.124Z,87.25
2023-01-18T07:41:34.251Z,72.32
2023-01-18T07:44:05.076Z,66.10
2023-01-18T07:46:33.816Z,59.15
2023-01-18T07:49:05.660Z,64.13
2023-01-18T07:51:35.119Z,66.05
2023-01-18T07:54:03.643Z,88.10
2023-01-18T07:56:32.278Z,112.40
2023-01-18T07:59:00.507Z,84.18
2023-01-18T08:01:29.483Z,73.70
2023-01-18T08:03:57.778Z,73.90
2023-01-18T08:06:27.341Z,94.75
2023-01-18T08:08:57.060Z,129.32
2023-01-18T08:11:26.101Z,107.80
2023-01-18T08:13:54.435Z,82.55
2023-01-18T08:16:22.981Z,59.83
2023-01-18T08:18:51.846Z,74.05
2023-01-18T08:21:20.471Z,91.70
2023-01-18T08:23:48.695Z,149.70
2023-01-18T08:26:17.248Z,264.55
2023-01-18T08:28:45.637Z,101.43
2023-01-18T08:31:17.515Z,71.43
2023-01-18T08:33:47.726Z,62.47
2023-01-18T08:36:22.621Z,90.20
2023-01-18T08:38:53.853Z,104.95
2023-01-18T08:41:28.317Z,73.35
2023-01-18T08:43:57.938Z,69.03
2023-01-18T08:46:26.999Z,241.90
2023-01-18T08:48:57.849Z,130.30
2023-01-18T08:51:26.518Z,200.23
2023-01-18T08:53:57.274Z,100.85
2023-01-18T08:56:26.965Z,88.90
2023-01-18T08:58:55.404Z,92.95
2023-01-18T09:01:24.802Z,128.95
2023-01-18T09:03:58.549Z,79.10
2023-01-18T09:06:32.214Z,99.95
2023-01-18T09:09:01.705Z,156.20
2023-01-18T09:11:30.416Z,89.63
2023-01-18T09:14:01.664Z,101.47
2023-01-18T09:19:00.154Z,83.55
2023-01-18T09:21:28.987Z,73.03
2023-01-18T09:23:57.989Z,81.97
2023-01-18T09:26:27.928Z,75.32
2023-01-18T09:28:56.520Z,69.97
2023-01-18T09:31:27.134Z,68.88
2023-01-18T09:34:06.369Z,64.97
2023-01-18T09:36:46.169Z,63.30
2023-01-18T09:39:14.484Z,64.53
2023-01-18T09:41:47.523Z,69.25
2023-01-18T09:44:18.723Z,73.07
2023-01-18T09:46:54.842Z,79.93
2023-01-18T09:49:46.562Z,115.15
2023-01-18T09:52:57.265Z,67.13
2023-01-18T09:55:46.156Z,81.65
2023-01-18T09:58:38.773Z,50.85
2023-01-18T10:01:12.869Z,62.28
2023-01-18T10:04:08.918Z,69.35
2023-01-18T10:06:51.285Z,78.85
2023-01-18T10:09:30.089Z,62.05
2023-01-18T10:12:17.804Z,59.05
2023-01-18T10:15:04.547Z,71.13
2023-01-18T10:17:38.340Z,70.15
2023-01-18T10:20:28.450Z,74.32
2023-01-18T10:23:24.362Z,54.15
2023-01-18T10:26:18.826Z,50.88
2023-01-18T10:28:59.125Z,64.88
2023-01-18T10:31:52.416Z,119.78
2023-01-18T10:34:23.303Z,129.10
2023-01-18T10:36:56.916Z,81.28
2023-01-18T10:40:01.851Z,55.42
2023-01-18T10:42:56.706Z,141.52
2023-01-18T10:45:30.959Z,58.22
2023-01-18T10:48:18.565Z,49.83
2023-01-18T10:51:08.085Z,54.75
2023-01-18T10:53:39.083Z,51.47
2023-01-18T10:56:28.502Z,43.28
2023-01-18T10:58:59.159Z,58.30
2023-01-18T11:01:30.155Z,115.32
2023-01-18T11:04:08.284Z,90.22
2023-01-18T11:06:52.348Z,128.88
2023-01-18T11:09:44.055Z,77.03
2023-01-18T11:12:33.997Z,97.85
2023-01-18T11:15:16.062Z,85.50
2023-01-18T11:17:54.750Z,59.13
2023-01-18T11:20:39.266Z,112.78
2023-01-18T11:23:10.527Z,81.07
2023-01-18T11:25:42.802Z,75.25
2023-01-18T11:28:48.496Z,95.32
2023-01-18T11:31:23.208Z,56.20
2023-01-18T11:33:58.076Z,61.15
2023-01-18T11:36:42.342Z,88.55
2023-01-18T11:39:22.727Z,69.75
2023-01-18T11:41:52.040Z,74.22
2023-01-18T11:44:27.365Z,86.15
2023-01-18T11:47:04.017Z,106.38
2023-01-18T11:49:54.810Z,82.72
2023-01-18T11:52:53.920Z,85.68
2023-01-18T11:55:32.541Z,60.03
2023-01-18T11:58:01.827Z,99.90
2023-01-18T12:00:43.172Z,48.72
2023-01-18T12:03:20.921Z,68.43
2023-01-18T12:06:01.522Z,67.97
2023-01-18T12:08:40.558Z,60.47
2023-01-18T12:11:41.120Z,102.15
2023-01-18T12:14:18.841Z,122.30
2023-01-18T12:16:50.263Z,53.47
2023-01-18T12:19:53.876Z,40.42
2023-01-18T12:22:42.006Z,41.40
2023-01-18T12:25:28.713Z,44.33
2023-01-18T12:28:13.841Z,43.05
2023-01-18T12:31:05.501Z,46.78
2023-01-18T12:33:43.058Z,76.70
2023-01-18T12:36:47.262Z,58.83
2023-01-18T12:39:46.194Z,49.08
2023-01-18T12:42:43.650Z,64.32
2023-01-18T12:45:22.329Z,47.08
2023-01-18T12:48:06.577Z,36.85
2023-01-18T12:50:38.037Z,39.03
2023-01-18T12:53:13.369Z,49.25
2023-01-18T12:55:46.761Z,55.25
2023-01-18T12:58:20.689Z,61.10
2023-01-18T13:00:58.068Z,45.38
2023-01-18T13:03:35.093Z,52.10
2023-01-18T13:06:04.124Z,37.10
2023-01-18T13:08:44.996Z,36.90
2023-01-18T13:11:17.347Z,43.63
2023-01-18T13:13:48.191Z,39.00
2023-01-18T13:16:34.222Z,32.45
2023-01-18T13:19:10.749Z,36.38
2023-01-18T13:22:10.359Z,38.28
2023-01-18T13:25:13.169Z,34.78
2023-01-18T13:28:00.607Z,40.33
2023-01-18T13:30:33.611Z,51.13
2023-01-18T13:33:13.494Z,69.97
2023-01-18T13:35:53.205Z,93.78
2023-01-18T13:38:40.141Z,42.55
2023-01-18T13:41:12.555Z,39.63
2023-01-18T13:43:41.683Z,40.30
2023-01-18T13:46:10.333Z,47.20
2023-01-18T13:48:47.555Z,43.05
2023-01-18T13:51:41.025Z,40.88
2023-01-18T13:54:35.339Z,46.70
2023-01-18T13:57:09.700Z,39.00
2023-01-18T13:59:49.387Z,34.40
2023-01-18T14:02:27.883Z,37.83
2023-01-18T14:05:08.605Z,44.95
2023-01-18T14:07:50.541Z,54.08
2023-01-18T14:10:25.356Z,41.05
2023-01-18T14:12:56.720Z,38.85
2023-01-18T14:15:47.522Z,33.78
2023-01-18T14:18:34.197Z,36.85
2023-01-18T14:21:33.518Z,46.17
2023-01-18T14:24:37.734Z,45.58
2023-01-18T14:27:09.494Z,50.90
2023-01-18T14:32:21.834Z,42.92
2023-01-18T14:34:59.738Z,53.50
2023-01-18T14:37:34.858Z,58.65
2023-01-18T14:40:15.610Z,60.70
2023-01-18T14:43:01.146Z,53.13
2023-01-18T14:45:32.659Z,44.88
2023-01-18T14:48:18.216Z,43.23
2023-01-18T14:50:49.457Z,44.95
2023-01-18T14:53:28.134Z,45.15
2023-01-18T14:56:17.051Z,45.85
2023-01-18T14:58:57.251Z,38.53
2023-01-18T15:01:31.809Z,55.13
2023-01-18T15:04:06.608Z,53.42
2023-01-18T15:06:41.719Z,53.65
2023-01-18T15:09:12.794Z,54.33
2023-01-18T15:11:46.812Z,47.05
2023-01-18T15:14:45.492Z,39.22
2023-01-18T15:17:23.871Z,38.33
2023-01-18T15:19:58.267Z,41.90
2023-01-18T15:22:31.226Z,41.88
2023-01-18T15:25:03.660Z,47.97
2023-01-18T15:27:32.804Z,34.80
2023-01-18T15:30:02.013Z,43.05
2023-01-18T15:32:32.965Z,38.33
2023-01-18T15:35:03.268Z,38.45
2023-01-18T15:37:36.607Z,36.92
2023-01-18T15:40:23.422Z,32.88
2023-01-18T15:43:09.608Z,31.63
2023-01-18T15:45:40.427Z,29.65
2023-01-18T15:48:27.565Z,33.55
2023-01-18T15:50:58.097Z,35.38
2023-01-18T15:53:35.710Z,35.30
2023-01-18T15:56:14.815Z,45.28
2023-01-18T15:58:46.333Z,59.13
2023-01-18T16:01:16.493Z,68.72
2023-01-18T16:03:46.174Z,83.95
2023-01-18T16:06:17.177Z,64.70
2023-01-18T16:09:12.894Z,53.28
2023-01-18T16:11:41.827Z,34.72
2023-01-18T16:14:34.057Z,33.75
2023-01-18T16:17:12.612Z,36.42
2023-01-18T16:19:48.960Z,36.35
2023-01-18T16:22:38.741Z,37.67
2023-01-18T16:25:24.087Z,35.60
2023-01-18T16:27:58.185Z,36.45
2023-01-18T16:30:34.783Z,43.40
2023-01-18T16:33:27.578Z,50.90
2023-01-18T16:35:56.522Z,62.78
2023-01-18T16:38:24.892Z,69.10
2023-01-18T16:40:55.385Z,71.10
2023-01-18T16:44:17.680Z,77.88
2023-01-18T16:46:48.212Z,46.75
2023-01-18T16:49:16.485Z,41.88
2023-01-18T16:51:45.178Z,45.55
2023-01-18T16:54:13.396Z,45.92
2023-01-18T16:56:45.993Z,33.13
2023-01-18T16:59:24.723Z,32.25
2023-01-18T17:01:53.579Z,34.42
2023-01-18T17:04:22.012Z,50.40
2023-01-18T17:07:15.956Z,60.35
2023-01-18T17:09:48.717Z,51.17
2023-01-18T17:12:18.277Z,41.58
2023-01-18T17:14:46.557Z,49.05
2023-01-18T17:17:15.191Z,72.72
2023-01-18T17:19:46.514Z,48.65
2023-01-18T17:22:15.157Z,40.15
2023-01-18T17:24:44.594Z,37.97
2023-01-18T17:27:14.888Z,40.13
2023-01-18T17:29:43.121Z,40.95
2023-01-18T17:32:13.187Z,41.15
2023-01-18T17:34:41.583Z,43.08
2023-01-18T17:37:11.228Z,43.05
2023-01-18T17:39:50.021Z,49.50
2023-01-18T17:42:30.200Z,42.47
2023-01-18T17:45:06.622Z,45.35
2023-01-18T17:47:40.114Z,83.55
2023-01-18T17:51:23.524Z,70.15
2023-01-18T17:53:52.136Z,74.68
2023-01-18T17:56:20.405Z,88.22
2023-01-18T17:58:49.605Z,75.15
2023-01-18T18:01:18.948Z,64.82
2023-01-18T18:03:49.764Z,55.65
2023-01-18T18:06:30.322Z,50.90
2023-01-18T18:09:02.777Z,48.22
2023-01-18T18:11:31.227Z,44.28
2023-01-18T18:14:01.638Z,62.25
2023-01-18T18:16:32.672Z,93.57
2023-01-18T18:19:51.575Z,92.75
2023-01-18T18:22:20.614Z,72.85
2023-01-18T18:24:53.487Z,52.28
2023-01-18T18:27:37.458Z,58.42
2023-01-18T18:30:13.543Z,53.03
2023-01-18T18:32:41.996Z,41.35
2023-01-18T18:35:26.728Z,41.25
2023-01-18T18:38:24.301Z,41.40
2023-01-18T18:41:23.273Z,41.67
2023-01-18T18:43:52.570Z,42.25
2023-01-18T18:46:21.021Z,46.13
2023-01-18T18:48:55.041Z,59.83
2023-01-18T18:51:24.608Z,53.33
2023-01-18T18:54:18.765Z,59.33
2023-01-18T18:56:51.020Z,57.13
2023-01-18T18:59:44.747Z,59.38
2023-01-18T19:02:15.382Z,58.28
2023-01-18T19:06:02.490Z,53.67
2023-01-18T19:08:32.113Z,52.67
2023-01-18T19:11:00.738Z,55.10
2023-01-18T19:13:29.707Z,53.40
2023-01-18T19:16:38.425Z,56.08
2023-01-18T19:19:11.054Z,54.28
2023-01-18T19:21:42.456Z,48.80
2023-01-18T19:27:10.680Z,47.35
2023-01-18T19:29:46.158Z,46.60
2023-01-18T19:35:13.813Z,50.30
2023-01-18T19:37:42.501Z,47.63
2023-01-18T19:40:12.705Z,47.17
2023-01-18T19:43:15.770Z,47.83
2023-01-18T19:45:47.308Z,44.80
2023-01-18T19:48:17.820Z,45.63
2023-01-18T19:50:52.397Z,42.03
2023-01-18T19:53:28.869Z,41.65
2023-01-18T19:56:06.946Z,39.58
2023-01-18T19:58:48.591Z,44.22
2023-01-18T20:01:34.628Z,40.80
2023-01-18T20:04:06.125Z,37.67
2023-01-18T20:06:37.608Z,40.70
2023-01-18T20:09:17.842Z,41.67
2023-01-18T20:11:48.361Z,40.45
2023-01-18T20:14:18.535Z,37.83
2023-01-18T20:16:48.516Z,39.20
2023-01-18T20:19:17.732Z,42.75
2023-01-18T20:21:47.076Z,37.50
2023-01-18T20:27:40.875Z,41.40
2023-01-18T20:30:10.100Z,38.75
2023-01-18T20:32:41.604Z,45.78
2023-01-18T20:35:35.913Z,40.00
2023-01-18T20:38:04.823Z,39.72
2023-01-18T20:40:34.099Z,37.63
2023-01-18T20:43:06.778Z,33.95
2023-01-18T20:46:29.087Z,34.05
2023-01-18T20:49:07.831Z,36.88
2023-01-18T20:52:29.869Z,36.05
2023-01-18T20:58:55.284Z,56.88
2023-01-18T21:01:24.136Z,45.92
2023-01-18T21:04:04.856Z,66.03
2023-01-18T21:07:00.001Z,101.35
2023-01-18T21:09:28.729Z,78.53
2023-01-18T21:11:59.369Z,65.43
2023-01-18T21:14:41.846Z,66.60
2023-01-18T21:17:12.613Z,46.78
2023-01-18T21:19:46.091Z,46.27
2023-01-18T21:22:17.305Z,59.47
2023-01-18T21:24:46.017Z,64.68
2023-01-18T21:27:14.331Z,66.93
2023-01-18T21:30:14.655Z,52.85
2023-01-18T21:32:43.636Z,57.60
2023-01-18T21:35:12.280Z,53.90
2023-01-18T21:37:41.960Z,67.55
2023-01-18T21:40:10.841Z,52.75
2023-01-18T21:45:55.748Z,48.15
2023-01-18T21:48:27.279Z,64.28
2023-01-18T21:51:31.717Z,41.13
2023-01-18T21:54:16.594Z,62.35
2023-01-18T21:56:45.940Z,116.40
2023-01-18T21:59:14.791Z,105.30
2023-01-18T22:01:45.536Z,77.63
2023-01-18T22:04:36.343Z,52.70
2023-01-18T22:07:04.674Z,44.88
2023-01-18T22:09:33.924Z,40.75
2023-01-18T22:12:02.229Z,41.13
2023-01-18T22:14:30.875Z,34.25
2023-01-18T22:16:59.106Z,36.13
2023-01-18T22:19:27.760Z,42.92
2023-01-18T22:21:56.065Z,38.40
2023-01-18T22:24:27.664Z,35.38
2023-01-18T22:26:56.066Z,36.88
2023-01-18T22:29:24.609Z,40.38
2023-01-18T22:31:53.291Z,38.95
2023-01-18T22:34:22.015Z,38.03
2023-01-18T22:36:50.619Z,40.53
2023-01-18T22:39:19.708Z,43.22
2023-01-18T22:41:48.703Z,50.08
2023-01-18T22:44:19.912Z,47.80
2023-01-18T22:46:48.147Z,42.78
2023-01-18T22:49:16.976Z,41.15
2023-01-18T22:51:48.273Z,45.80
2023-01-18T22:54:18.990Z,38.85
2023-01-18T22:57:06.943Z,38.75
2023-01-18T22:59:38.263Z,40.20
2023-01-18T23:02:06.580Z,40.50
2023-01-18T23:04:35.293Z,45.13
2023-01-18T23:07:06.046Z,42.40
2023-01-18T23:09:34.667Z,42.47
2023-01-18T23:12:03.044Z,40.13
2023-01-18T23:14:50.048Z,41.38
2023-01-18T23:17:37.329Z,46.00
2023-01-18T23:20:08.402Z,39.97
2023-01-18T23:22:36.985Z,59.08
2023-01-18T23:25:06.251Z,52.65
2023-01-18T23:27:34.487Z,50.83
2023-01-18T23:30:03.702Z,45.30
2023-01-18T23:32:32.146Z,41.05
2023-01-18T23:35:01.090Z,47.45
2023-01-18T23:37:29.653Z,47.47
2023-01-18T23:40:16.898Z,47.00
2023-01-18T23:43:03.695Z,53.45
2023-01-18T23:45:50.672Z,55.08
2023-01-18T23:48:38.800Z,53.88
2023-01-18T23:51:27.716Z,56.38
2023-01-18T23:54:17.938Z,55.50
2023-01-18T23:56:47.894Z,61.83
2023-01-18T23:59:16.510Z,59.15
